Dunglen, Ohio
Current Conditions -  °F | °C
As of 2:53 AM on Sunday 21 Dec 2014 (Local Time) from KHLG Reporting Station
Overcast Overcast  
Wind Chill: 28°   Ceiling: 5000
Heat Index: 28°   Visibility: 10mi
Dew Point: 22°   Wind: 0mph
Humidity: 78%   Direction: NA
Pressure: 30.27"   Gusts: NA
Location:  40.2215°N, 80.8189°W
Report Text: KHLG 210753Z AUTO 00000KT 10SM OVC050 M02/M06 A3027 RMK AO2 SLP268 T10221056
Loading
Personal Weather Stations






























Interactive Weather Map New forecast layout! Learn more

10-Day Weather Forecast

Advertisements
Track Severe Weather on mobile